createdAt,value
2019-03-20T00:02:10.037Z,49.06
2019-03-20T00:04:36.611Z,50.17
2019-03-20T00:07:03.194Z,49.58
2019-03-20T00:09:29.767Z,49.81
2019-03-20T00:11:56.341Z,50.78
2019-03-20T00:14:22.924Z,53.77
2019-03-20T00:16:49.498Z,50.75
2019-03-20T00:19:16.083Z,50.19
2019-03-20T00:21:42.662Z,50.14
2019-03-20T00:24:09.239Z,50.14
2019-03-20T00:26:35.815Z,50.51
2019-03-20T00:29:02.394Z,51.63
2019-03-20T00:31:28.978Z,51.62
2019-03-20T00:33:55.544Z,53.23
2019-03-20T00:36:22.127Z,51.36
2019-03-20T00:38:48.710Z,53.64
2019-03-20T00:41:15.393Z,51.97
2019-03-20T00:43:41.970Z,51.65
2019-03-20T00:46:08.552Z,51.41
2019-03-20T00:48:35.125Z,52.33
2019-03-20T00:51:01.721Z,53.01
2019-03-20T00:53:28.296Z,52.39
2019-03-20T00:55:54.897Z,51.73
2019-03-20T00:58:21.476Z,51.69
2019-03-20T01:00:48.087Z,52.03
2019-03-20T01:03:14.663Z,51.78
2019-03-20T01:05:41.262Z,52.21
2019-03-20T01:08:07.835Z,52.33
2019-03-20T01:10:34.500Z,52.25
2019-03-20T01:13:01.110Z,52.24
2019-03-20T01:15:27.677Z,51.56
2019-03-20T01:17:54.249Z,51.54
2019-03-20T01:20:20.820Z,53.03
2019-03-20T01:22:47.516Z,51.87
2019-03-20T01:25:14.102Z,51.80
2019-03-20T01:27:40.709Z,51.45
2019-03-20T01:30:07.337Z,51.43
2019-03-20T01:32:33.988Z,53.11
2019-03-20T01:35:00.583Z,52.28
2019-03-20T01:37:27.183Z,51.98
2019-03-20T01:39:53.777Z,52.04
2019-03-20T01:42:20.408Z,51.78
2019-03-20T01:44:46.986Z,52.13
2019-03-20T01:47:13.599Z,52.25
2019-03-20T01:49:40.179Z,52.02
2019-03-20T01:52:06.849Z,51.79
2019-03-20T01:54:33.549Z,51.97
2019-03-20T01:57:00.157Z,52.13
2019-03-20T01:59:26.732Z,52.11
2019-03-20T02:01:53.344Z,52.40
2019-03-20T02:04:19.922Z,52.24
2019-03-20T02:06:46.537Z,52.01
2019-03-20T02:09:13.123Z,52.92
2019-03-20T02:11:39.711Z,52.72
2019-03-20T02:14:06.292Z,52.85
2019-03-20T02:16:32.909Z,52.31
2019-03-20T02:18:59.492Z,52.09
2019-03-20T02:21:26.079Z,52.46
2019-03-20T02:23:52.665Z,52.25
2019-03-20T02:26:19.261Z,52.39
2019-03-20T02:28:45.914Z,52.56
2019-03-20T02:31:12.540Z,53.25
2019-03-20T02:33:39.190Z,53.00
2019-03-20T02:36:05.805Z,52.93
2019-03-20T02:38:32.390Z,52.93
2019-03-20T02:40:58.945Z,53.15
2019-03-20T02:43:25.510Z,53.19
2019-03-20T02:45:52.092Z,53.18
2019-03-20T02:48:18.668Z,53.10
2019-03-20T02:50:45.245Z,54.11
2019-03-20T02:53:11.817Z,53.63
2019-03-20T02:55:38.424Z,53.39
2019-03-20T02:58:05.073Z,52.92
2019-03-20T03:00:31.702Z,53.81
2019-03-20T03:02:58.281Z,52.85
2019-03-20T03:05:24.857Z,52.64
2019-03-20T03:07:51.430Z,52.57
2019-03-20T03:10:18.031Z,52.94
2019-03-20T03:12:44.672Z,53.52
2019-03-20T03:15:11.246Z,53.22
2019-03-20T03:17:37.867Z,52.76
2019-03-20T03:20:04.517Z,53.17
2019-03-20T03:22:31.119Z,52.74
2019-03-20T03:24:57.693Z,52.66
2019-03-20T03:27:24.304Z,53.57
2019-03-20T03:29:50.866Z,53.41
2019-03-20T03:32:17.578Z,53.28
2019-03-20T03:34:44.159Z,53.50
2019-03-20T03:37:10.743Z,53.34
2019-03-20T03:39:37.334Z,53.83
2019-03-20T03:42:03.923Z,53.73
2019-03-20T03:44:30.514Z,53.36
2019-03-20T03:46:57.131Z,53.22
2019-03-20T03:49:23.699Z,53.23
2019-03-20T03:51:50.292Z,53.20
2019-03-20T03:54:16.862Z,53.48
2019-03-20T03:56:43.473Z,53.68
2019-03-20T03:59:10.050Z,53.81
2019-03-20T04:01:36.652Z,53.08
2019-03-20T04:04:03.227Z,53.13
2019-03-20T04:06:35.536Z,53.25
2019-03-20T04:08:58.094Z,53.19
2019-03-20T04:11:24.674Z,53.22
2019-03-20T04:13:51.254Z,53.39
2019-03-20T04:16:17.819Z,53.55
2019-03-20T04:18:44.402Z,53.34
2019-03-20T04:21:10.986Z,53.70
2019-03-20T04:23:37.561Z,53.52
2019-03-20T04:26:04.139Z,54.88
2019-03-20T04:28:30.770Z,54.85
2019-03-20T04:30:57.369Z,54.21
2019-03-20T04:33:23.949Z,53.99
2019-03-20T04:35:50.530Z,53.65
2019-03-20T04:38:17.208Z,53.50
2019-03-20T04:40:43.795Z,53.67
2019-03-20T04:43:10.371Z,53.60
2019-03-20T04:45:36.953Z,54.18
2019-03-20T04:48:03.529Z,53.97
2019-03-20T04:50:30.108Z,55.05
2019-03-20T04:52:56.672Z,54.77
2019-03-20T04:55:23.239Z,54.83
2019-03-20T04:57:49.822Z,54.53
2019-03-20T05:00:16.439Z,55.66
2019-03-20T05:02:43.052Z,54.83
2019-03-20T05:05:09.615Z,54.69
2019-03-20T05:07:36.231Z,54.40
2019-03-20T05:10:02.807Z,54.99
2019-03-20T05:12:29.398Z,54.40
2019-03-20T05:14:55.970Z,54.40
2019-03-20T05:17:22.572Z,54.12
2019-03-20T05:19:49.148Z,54.06
2019-03-20T05:22:15.755Z,53.80
2019-03-20T05:24:42.328Z,53.87
2019-03-20T05:27:08.905Z,53.85
2019-03-20T05:29:35.501Z,53.92
2019-03-20T05:32:02.133Z,53.92
2019-03-20T05:34:28.706Z,54.18
2019-03-20T05:36:55.278Z,54.37
2019-03-20T05:39:21.870Z,54.44
2019-03-20T05:41:48.444Z,54.33
2019-03-20T05:44:15.021Z,54.25
2019-03-20T05:46:41.589Z,54.23
2019-03-20T05:49:08.166Z,54.29
2019-03-20T05:51:34.756Z,54.24
2019-03-20T05:54:01.318Z,53.99
2019-03-20T05:56:27.888Z,54.20
2019-03-20T05:58:54.468Z,54.42
2019-03-20T06:01:21.061Z,54.52
2019-03-20T06:03:47.636Z,54.07
2019-03-20T06:06:14.220Z,53.97
2019-03-20T06:08:40.804Z,54.04
2019-03-20T06:11:07.492Z,54.44
2019-03-20T06:13:34.061Z,54.29
2019-03-20T06:16:00.634Z,54.12
2019-03-20T06:18:27.255Z,54.47
2019-03-20T06:20:53.836Z,54.27
2019-03-20T06:23:20.461Z,54.17
2019-03-20T06:25:47.031Z,54.38
2019-03-20T06:28:13.646Z,54.21
2019-03-20T06:30:40.229Z,54.38
2019-03-20T06:33:07.096Z,54.13
2019-03-20T06:35:33.714Z,53.91
2019-03-20T06:38:00.326Z,53.78
2019-03-20T06:40:26.892Z,53.62
2019-03-20T06:42:55.284Z,53.69
2019-03-20T06:45:21.791Z,53.54
2019-03-20T06:47:48.396Z,53.51
2019-03-20T06:50:14.965Z,53.52
2019-03-20T06:52:41.576Z,53.37
2019-03-20T06:55:08.154Z,53.37
2019-03-20T06:57:34.739Z,53.18
2019-03-20T07:00:01.322Z,53.09
2019-03-20T07:02:27.888Z,52.85
2019-03-20T07:04:54.549Z,52.80
2019-03-20T07:07:21.118Z,52.70
2019-03-20T07:09:47.713Z,52.58
2019-03-20T07:12:14.286Z,52.14
2019-03-20T07:14:40.861Z,52.10
2019-03-20T07:17:07.448Z,52.06
2019-03-20T07:19:34.155Z,51.65
2019-03-20T07:22:00.728Z,51.53
2019-03-20T07:24:27.324Z,51.41
2019-03-20T07:26:53.899Z,51.38
2019-03-20T07:29:20.496Z,51.02
2019-03-20T07:31:47.070Z,50.94
2019-03-20T07:34:13.719Z,50.95
2019-03-20T07:36:40.313Z,50.63
2019-03-20T07:39:06.895Z,50.46
2019-03-20T07:41:33.469Z,50.33
2019-03-20T07:44:00.068Z,50.29
2019-03-20T07:46:26.645Z,50.01
2019-03-20T07:48:53.246Z,49.72
2019-03-20T07:51:19.828Z,49.65
2019-03-20T07:53:46.469Z,49.44
2019-03-20T07:56:13.085Z,48.88
2019-03-20T07:58:39.674Z,49.15
2019-03-20T08:01:06.250Z,48.98
2019-03-20T08:03:32.863Z,48.77
2019-03-20T08:05:59.438Z,48.06
2019-03-20T08:08:26.059Z,48.35
2019-03-20T08:10:52.631Z,47.82
2019-03-20T08:13:19.252Z,47.66
2019-03-20T08:15:45.840Z,47.30
2019-03-20T08:18:12.411Z,47.26
2019-03-20T08:20:38.981Z,47.34
2019-03-20T08:23:05.551Z,47.20
2019-03-20T08:25:32.135Z,46.82
2019-03-20T08:27:58.716Z,46.53
2019-03-20T08:30:25.286Z,46.70
2019-03-20T08:32:51.865Z,46.02
2019-03-20T08:35:18.492Z,45.59
2019-03-20T08:37:45.065Z,45.18
2019-03-20T08:40:11.645Z,44.63
2019-03-20T08:42:38.217Z,44.86
2019-03-20T08:45:04.802Z,45.02
2019-03-20T08:47:31.380Z,45.08
2019-03-20T08:49:57.959Z,44.79
2019-03-20T08:52:24.536Z,44.91
2019-03-20T08:54:51.118Z,44.08
2019-03-20T08:57:17.690Z,44.00
2019-03-20T08:59:44.277Z,43.69
2019-03-20T09:02:10.867Z,43.53
2019-03-20T09:04:37.426Z,42.25
2019-03-20T09:07:04.004Z,41.55
2019-03-20T09:09:30.582Z,40.63
2019-03-20T09:11:57.165Z,39.88
2019-03-20T09:14:23.744Z,40.31
2019-03-20T09:16:50.319Z,41.11
2019-03-20T09:19:16.907Z,41.01
2019-03-20T09:21:43.489Z,40.78
2019-03-20T09:24:10.062Z,40.71
2019-03-20T09:26:36.638Z,40.63
2019-03-20T09:29:03.238Z,40.00
2019-03-20T09:31:29.822Z,38.39
2019-03-20T09:33:56.484Z,38.00
2019-03-20T09:36:23.188Z,38.57
2019-03-20T09:38:49.805Z,38.42
2019-03-20T09:41:16.380Z,38.90
2019-03-20T09:43:43.018Z,37.76
2019-03-20T09:46:09.595Z,38.08
2019-03-20T09:48:36.170Z,38.11
2019-03-20T09:51:02.778Z,37.81
2019-03-20T09:53:29.368Z,37.46
2019-03-20T09:55:55.976Z,36.67
2019-03-20T09:58:22.558Z,35.93
2019-03-20T10:00:49.167Z,34.39
2019-03-20T10:03:15.751Z,34.66
2019-03-20T10:05:42.358Z,34.46
2019-03-20T10:08:09.006Z,35.11
2019-03-20T10:10:35.661Z,35.31
2019-03-20T10:13:02.338Z,34.74
2019-03-20T10:15:28.931Z,34.21
2019-03-20T10:17:55.513Z,33.99
2019-03-20T10:20:22.116Z,32.09
2019-03-20T10:22:48.693Z,32.88
2019-03-20T10:25:15.302Z,33.21
2019-03-20T10:27:41.884Z,32.94
2019-03-20T10:30:08.516Z,32.30
2019-03-20T10:32:35.088Z,32.71
2019-03-20T10:35:01.699Z,32.49
2019-03-20T10:37:28.270Z,32.49
2019-03-20T10:39:54.871Z,32.41
2019-03-20T10:42:21.447Z,32.01
2019-03-20T10:44:48.068Z,32.60
2019-03-20T10:47:14.643Z,32.08
2019-03-20T10:49:41.256Z,30.79
2019-03-20T10:52:07.849Z,30.80
2019-03-20T10:54:34.465Z,31.60
2019-03-20T10:57:01.131Z,31.66
2019-03-20T10:59:27.736Z,30.89
2019-03-20T11:01:54.318Z,30.85
2019-03-20T11:04:20.926Z,30.38
2019-03-20T11:06:47.502Z,29.01
2019-03-20T11:09:18.580Z,27.51
2019-03-20T11:11:42.395Z,25.82
2019-03-20T11:14:08.971Z,24.51
2019-03-20T11:16:35.565Z,24.97
2019-03-20T11:19:02.220Z,24.16
2019-03-20T11:21:28.799Z,25.08
2019-03-20T11:23:55.392Z,23.00
2019-03-20T11:26:21.972Z,23.63
2019-03-20T11:28:48.543Z,23.58
2019-03-20T11:31:15.134Z,23.39
2019-03-20T11:33:41.701Z,23.54
2019-03-20T11:36:08.277Z,20.49
2019-03-20T11:38:34.930Z,20.65
2019-03-20T11:41:01.519Z,21.32
2019-03-20T11:43:28.092Z,21.34
2019-03-20T11:45:54.687Z,21.44
2019-03-20T11:48:21.242Z,21.37
2019-03-20T11:50:47.863Z,21.65
2019-03-20T11:53:14.442Z,22.01
2019-03-20T11:55:41.017Z,20.13
2019-03-20T11:58:09.842Z,21.04
2019-03-20T12:00:36.443Z,20.93
2019-03-20T12:03:03.015Z,19.43
2019-03-20T12:05:29.606Z,21.02
2019-03-20T12:07:56.186Z,20.72
2019-03-20T12:10:22.779Z,21.04
2019-03-20T12:12:49.358Z,19.66
2019-03-20T12:15:15.983Z,19.42
2019-03-20T12:17:42.583Z,19.84
2019-03-20T12:20:09.200Z,20.56
2019-03-20T12:22:35.814Z,20.87
2019-03-20T12:25:02.441Z,20.93
2019-03-20T12:27:29.025Z,20.80
2019-03-20T12:29:55.613Z,18.35
2019-03-20T12:32:22.189Z,17.69
2019-03-20T12:34:48.764Z,16.94
2019-03-20T12:37:15.344Z,14.55
2019-03-20T12:39:52.634Z,15.33
2019-03-20T12:42:10.215Z,14.96
2019-03-20T12:44:36.789Z,14.21
2019-03-20T12:47:03.372Z,13.38
2019-03-20T12:49:29.956Z,13.12
2019-03-20T12:51:56.583Z,13.21
2019-03-20T12:54:23.208Z,13.71
2019-03-20T12:56:49.784Z,13.09
2019-03-20T12:59:16.366Z,11.83
2019-03-20T13:01:42.937Z,14.24
2019-03-20T13:04:09.525Z,14.14
2019-03-20T13:06:36.089Z,13.48
2019-03-20T13:09:03.779Z,13.57
2019-03-20T13:11:30.496Z,13.45
2019-03-20T13:13:57.086Z,13.90
2019-03-20T13:16:23.663Z,14.36
2019-03-20T13:18:50.251Z,14.38
2019-03-20T13:21:16.822Z,15.50
2019-03-20T13:23:43.404Z,16.26
2019-03-20T13:26:09.977Z,17.38
2019-03-20T13:28:36.562Z,17.60
2019-03-20T13:31:03.155Z,18.29
2019-03-20T13:33:29.771Z,18.81
2019-03-20T13:35:56.391Z,19.69
2019-03-20T13:38:22.965Z,20.39
2019-03-20T13:40:49.541Z,21.18
2019-03-20T13:43:16.148Z,21.70
2019-03-20T13:45:42.714Z,22.23
2019-03-20T13:48:09.314Z,22.53
2019-03-20T13:50:35.935Z,22.75
2019-03-20T13:53:02.508Z,23.29
2019-03-20T13:55:29.123Z,22.17
2019-03-20T13:57:55.706Z,19.33
2019-03-20T14:00:22.310Z,18.33
2019-03-20T14:02:48.924Z,16.41
2019-03-20T14:05:15.505Z,15.67
2019-03-20T14:07:42.130Z,14.38
2019-03-20T14:10:08.709Z,13.43
2019-03-20T14:12:35.311Z,12.71
2019-03-20T14:15:01.881Z,11.58
2019-03-20T14:17:28.473Z,11.56
2019-03-20T14:19:55.051Z,11.10
2019-03-20T14:22:21.676Z,9.48
2019-03-20T14:24:48.256Z,8.16
2019-03-20T14:27:14.847Z,9.39
2019-03-20T14:29:41.420Z,9.69
2019-03-20T14:32:08.006Z,9.29
2019-03-20T14:34:34.582Z,9.02
2019-03-20T14:37:01.180Z,9.15
2019-03-20T14:39:27.749Z,8.83
2019-03-20T14:41:54.340Z,8.79
2019-03-20T14:44:20.903Z,7.88
2019-03-20T14:46:47.499Z,8.31
2019-03-20T14:49:14.070Z,8.50
2019-03-20T14:51:40.694Z,7.64
2019-03-20T14:54:07.337Z,9.03
2019-03-20T14:56:33.950Z,10.72
2019-03-20T14:59:00.530Z,11.79
2019-03-20T15:01:27.190Z,12.91
2019-03-20T15:03:53.759Z,14.01
2019-03-20T15:06:20.383Z,14.95
2019-03-20T15:08:46.958Z,15.83
2019-03-20T15:11:13.559Z,16.40
2019-03-20T15:13:40.143Z,16.89
2019-03-20T15:16:06.743Z,17.46
2019-03-20T15:18:33.326Z,18.01
2019-03-20T15:20:59.896Z,18.45
2019-03-20T15:23:26.478Z,18.78
2019-03-20T15:25:53.112Z,19.15
2019-03-20T15:28:19.685Z,19.46
2019-03-20T15:30:46.253Z,19.76
2019-03-20T15:33:12.830Z,20.08
2019-03-20T15:38:23.810Z,20.61
2019-03-20T15:40:56.196Z,21.01
2019-03-20T15:43:18.707Z,21.18
2019-03-20T15:45:45.284Z,21.40
2019-03-20T15:48:11.879Z,21.73
2019-03-20T15:50:38.477Z,21.85
2019-03-20T15:53:05.088Z,22.18
2019-03-20T15:55:31.666Z,22.34
2019-03-20T15:57:58.292Z,22.47
2019-03-20T16:00:24.857Z,22.66
2019-03-20T16:02:51.461Z,22.79
2019-03-20T16:05:18.035Z,22.93
2019-03-20T16:07:44.652Z,23.24
2019-03-20T16:10:11.229Z,23.31
2019-03-20T16:12:37.842Z,23.62
2019-03-20T16:15:04.471Z,23.77
2019-03-20T16:17:31.066Z,23.95
2019-03-20T16:19:57.642Z,24.00
2019-03-20T16:22:24.251Z,24.08
2019-03-20T16:24:50.822Z,24.34
2019-03-20T16:27:17.424Z,24.40
2019-03-20T16:29:43.997Z,24.69
2019-03-20T16:32:11.730Z,24.90
2019-03-20T16:34:38.349Z,25.21
2019-03-20T16:37:05.067Z,25.45
2019-03-20T16:39:31.645Z,25.43
2019-03-20T16:41:58.259Z,25.37
2019-03-20T16:44:24.840Z,25.60
2019-03-20T16:46:51.452Z,25.72
2019-03-20T16:49:18.032Z,25.77
2019-03-20T16:51:44.633Z,25.92
2019-03-20T16:54:11.381Z,26.11
2019-03-20T16:56:38.000Z,26.32
2019-03-20T16:59:04.601Z,26.39
2019-03-20T17:01:31.242Z,26.52
2019-03-20T17:03:57.816Z,26.24
2019-03-20T17:06:24.405Z,26.69
2019-03-20T17:08:50.983Z,26.91
2019-03-20T17:11:27.448Z,27.07
2019-03-20T17:13:45.869Z,27.26
2019-03-20T17:16:12.462Z,27.31
2019-03-20T17:18:39.031Z,27.47
2019-03-20T17:21:05.598Z,27.77
2019-03-20T17:23:32.185Z,27.73
2019-03-20T17:25:58.766Z,27.88
2019-03-20T17:28:25.344Z,28.14
2019-03-20T17:30:53.064Z,27.97
2019-03-20T17:33:19.640Z,28.06
2019-03-20T17:35:46.220Z,28.10
2019-03-20T17:38:12.798Z,28.23
2019-03-20T17:40:39.383Z,28.40
2019-03-20T17:43:05.966Z,28.55
2019-03-20T17:45:32.534Z,28.64
2019-03-20T17:47:59.106Z,28.67
2019-03-20T17:50:25.693Z,29.10
2019-03-20T17:52:52.299Z,28.93
2019-03-20T17:55:18.873Z,29.03
2019-03-20T17:57:45.637Z,29.45
2019-03-20T18:00:12.211Z,29.55
2019-03-20T18:02:40.237Z,29.98
2019-03-20T18:05:06.814Z,29.89
2019-03-20T18:07:35.312Z,30.26
2019-03-20T18:10:01.730Z,29.95
2019-03-20T18:12:29.244Z,30.82
2019-03-20T18:14:55.857Z,31.20
2019-03-20T18:17:22.460Z,30.84
2019-03-20T18:19:49.045Z,30.77
2019-03-20T18:22:15.650Z,31.05
2019-03-20T18:24:42.226Z,30.97
2019-03-20T18:27:08.809Z,30.94
2019-03-20T18:29:35.372Z,31.37
2019-03-20T18:32:01.954Z,31.26
2019-03-20T18:34:28.519Z,31.31
2019-03-20T18:36:55.106Z,31.34
2019-03-20T18:39:21.671Z,31.52
2019-03-20T18:41:57.354Z,32.01
2019-03-20T18:44:16.562Z,33.23
2019-03-20T18:46:43.135Z,31.96
2019-03-20T18:49:09.728Z,32.62
2019-03-20T18:51:36.321Z,32.28
2019-03-20T18:54:02.892Z,32.57
2019-03-20T18:56:29.540Z,32.53
2019-03-20T18:58:56.114Z,32.79
2019-03-20T19:01:22.693Z,33.18
2019-03-20T19:03:49.347Z,33.45
2019-03-20T19:06:15.918Z,33.05
2019-03-20T19:08:42.599Z,33.47
2019-03-20T19:11:09.326Z,33.49
2019-03-20T19:13:36.076Z,33.60
2019-03-20T19:16:02.651Z,33.36
2019-03-20T19:18:29.239Z,33.56
2019-03-20T19:20:55.808Z,34.20
2019-03-20T19:23:22.387Z,34.52
2019-03-20T19:25:48.968Z,34.06
2019-03-20T19:28:16.466Z,34.31
2019-03-20T19:30:43.037Z,34.13
2019-03-20T19:33:09.619Z,34.74
2019-03-20T19:35:36.240Z,36.59
2019-03-20T19:38:02.823Z,34.98
2019-03-20T19:40:29.410Z,35.15
2019-03-20T19:42:56.053Z,35.57
2019-03-20T19:45:22.641Z,35.14
2019-03-20T19:47:49.210Z,38.08
2019-03-20T19:50:15.803Z,36.08
2019-03-20T19:52:42.448Z,35.83
2019-03-20T19:55:09.166Z,36.18
2019-03-20T19:57:35.818Z,36.19
2019-03-20T20:00:02.398Z,36.97
2019-03-20T20:02:28.988Z,35.92
2019-03-20T20:04:55.571Z,35.86
2019-03-20T20:07:22.143Z,35.71
2019-03-20T20:09:48.793Z,35.61
2019-03-20T20:12:15.374Z,35.62
2019-03-20T20:14:41.967Z,35.86
2019-03-20T20:17:08.556Z,36.13
2019-03-20T20:19:35.138Z,36.74
2019-03-20T20:22:01.713Z,36.34
2019-03-20T20:24:28.315Z,36.72
2019-03-20T20:26:54.899Z,37.17
2019-03-20T20:29:21.678Z,37.22
2019-03-20T20:31:48.244Z,37.93
2019-03-20T20:34:14.824Z,37.50
2019-03-20T20:36:41.391Z,37.13
2019-03-20T20:39:08.016Z,37.16
2019-03-20T20:41:34.595Z,37.43
2019-03-20T20:44:01.167Z,37.78
2019-03-20T20:46:27.745Z,37.73
2019-03-20T20:48:54.482Z,37.22
2019-03-20T20:51:21.122Z,37.98
2019-03-20T20:53:47.729Z,38.49
2019-03-20T20:56:14.313Z,38.36
2019-03-20T20:58:40.908Z,38.35
2019-03-20T21:01:07.480Z,39.01
2019-03-20T21:03:34.116Z,38.09
2019-03-20T21:06:00.695Z,38.27
2019-03-20T21:08:28.598Z,37.93
2019-03-20T21:10:55.173Z,38.13
2019-03-20T21:13:21.792Z,39.34
2019-03-20T21:15:48.363Z,38.89
2019-03-20T21:18:15.033Z,39.14
2019-03-20T21:20:41.635Z,38.80
2019-03-20T21:23:08.196Z,38.65
2019-03-20T21:25:34.830Z,39.34
2019-03-20T21:28:01.399Z,38.66
2019-03-20T21:30:28.040Z,38.53
2019-03-20T21:32:54.617Z,39.73
2019-03-20T21:35:21.220Z,39.64
2019-03-20T21:37:47.794Z,39.47
2019-03-20T21:40:14.389Z,39.34
2019-03-20T21:42:40.967Z,39.37
2019-03-20T21:45:07.628Z,39.10
2019-03-20T21:47:34.285Z,39.06
2019-03-20T21:50:00.871Z,39.28
2019-03-20T21:52:27.463Z,39.32
2019-03-20T21:54:54.019Z,39.41
2019-03-20T21:57:20.654Z,40.11
2019-03-20T21:59:47.208Z,40.04
2019-03-20T22:02:13.808Z,39.30
2019-03-20T22:04:40.384Z,40.48
2019-03-20T22:07:06.963Z,40.46
2019-03-20T22:09:33.596Z,39.93
2019-03-20T22:12:00.287Z,39.38
2019-03-20T22:14:26.880Z,40.30
2019-03-20T22:16:53.458Z,39.95
2019-03-20T22:19:20.049Z,39.69
2019-03-20T22:21:46.633Z,40.28
2019-03-20T22:24:13.227Z,40.64
2019-03-20T22:26:39.804Z,40.85
2019-03-20T22:29:06.461Z,40.27
2019-03-20T22:31:33.035Z,40.14
2019-03-20T22:33:59.607Z,41.54
2019-03-20T22:36:26.228Z,40.73
2019-03-20T22:38:52.810Z,40.79
2019-03-20T22:41:19.411Z,41.35
2019-03-20T22:43:45.990Z,41.08
2019-03-20T22:46:12.613Z,41.21
2019-03-20T22:48:39.176Z,41.27
2019-03-20T22:51:05.797Z,41.62
2019-03-20T22:53:32.372Z,41.24
2019-03-20T22:55:59.064Z,41.51
2019-03-20T22:58:25.642Z,41.61
2019-03-20T23:00:52.257Z,40.58
2019-03-20T23:03:18.838Z,40.50
2019-03-20T23:05:45.452Z,40.31
2019-03-20T23:08:12.034Z,40.81
2019-03-20T23:10:38.601Z,41.10
2019-03-20T23:13:05.186Z,40.95
2019-03-20T23:15:31.757Z,41.66
2019-03-20T23:17:58.376Z,41.09
2019-03-20T23:20:24.938Z,40.74
2019-03-20T23:22:52.059Z,40.51
2019-03-20T23:25:18.628Z,42.80
2019-03-20T23:27:45.218Z,41.08
2019-03-20T23:30:11.789Z,41.10
2019-03-20T23:32:38.389Z,41.90
2019-03-20T23:35:04.966Z,41.29
2019-03-20T23:37:32.641Z,40.86
2019-03-20T23:39:59.210Z,40.80
2019-03-20T23:42:25.803Z,40.92
2019-03-20T23:44:52.372Z,40.96
2019-03-20T23:47:18.975Z,41.47
2019-03-20T23:49:45.549Z,42.17
2019-03-20T23:52:12.137Z,41.71
2019-03-20T23:54:38.713Z,41.19
2019-03-20T23:57:05.301Z,41.51
2019-03-20T23:59:31.877Z,41.32
